Time;durP1;ratioP1;P1;durP2;ratioP2;P2;SDS_P1;SDS_P2;PMS_P1;PMS_P2;Temp;Humidity;BMP_temperature;BMP_pressure;BME280_temperature;BME280_humidity;BME280_pressure;Samples;Min_cycle;Max_cycle;Signal;HPM_P1;HPM_P2
2021/09/12 00:00:07;;;;;;;13.23;11.85;;;;;;;13.80;100.00;96116.41;1027035;28;20027;-62
2021/09/12 00:00:37;;;;;;;15.90;12.85;;;;;;;13.63;100.00;96089.63;1033692;28;20599;-64
2021/09/12 00:01:08;;;;;;;15.60;12.30;;;;;;;13.82;100.00;96109.03;1039091;28;20026;-66
2021/09/12 00:01:38;;;;;;;15.00;12.15;;;;;;;13.85;100.00;96119.03;1038497;28;20022;-65
2021/09/12 00:02:09;;;;;;;14.50;11.55;;;;;;;13.82;100.00;96114.28;1034770;28;20104;-65
2021/09/12 00:02:39;;;;;;;15.25;12.15;;;;;;;13.77;100.00;96103.75;1034384;28;20033;-66
2021/09/12 00:03:10;;;;;;;13.98;12.43;;;;;;;13.83;100.00;96110.59;1033942;28;20022;-66
2021/09/12 00:03:40;;;;;;;14.43;12.32;;;;;;;13.84;100.00;96111.38;1034672;28;20041;-66
2021/09/12 00:04:11;;;;;;;17.58;12.88;;;;;;;13.82;100.00;96114.28;1033999;28;20029;-66
2021/09/12 00:04:41;;;;;;;16.92;12.57;;;;;;;13.82;100.00;96113.50;1034981;28;20010;-66
2021/09/12 00:05:12;;;;;;;15.48;12.52;;;;;;;13.83;100.00;96115.06;1026921;28;20061;-66
2021/09/12 00:05:42;;;;;;;14.45;12.50;;;;;;;13.82;100.00;96105.59;1030992;28;20462;-66
2021/09/12 00:06:13;;;;;;;14.90;12.48;;;;;;;13.81;100.00;96106.63;1023356;28;20354;-66
2021/09/12 00:06:43;;;;;;;15.57;11.93;;;;;;;13.82;100.00;96114.28;1034861;28;20049;-65
2021/09/12 00:07:14;;;;;;;15.02;12.07;;;;;;;13.83;100.00;96109.81;1039240;28;20017;-66
2021/09/12 00:07:44;;;;;;;16.75;12.02;;;;;;;13.81;100.00;96112.69;1035131;28;20040;-66
2021/09/12 00:08:15;;;;;;;16.63;12.38;;;;;;;13.81;100.00;96114.56;1030829;28;20018;-66
2021/09/12 00:08:45;;;;;;;17.75;12.52;;;;;;;13.81;100.00;96112.69;1030638;28;20030;-66
2021/09/12 00:09:15;;;;;;;15.30;12.25;;;;;;;13.80;100.00;96112.97;1030621;28;20034;-66
2021/09/12 00:09:46;;;;;;;13.35;11.88;;;;;;;13.81;100.00;96106.63;1031082;28;20030;-66
2021/09/12 00:10:16;;;;;;;15.48;12.75;;;;;;;13.84;100.00;96112.16;1032701;28;20026;-66
2021/09/12 00:10:47;;;;;;;14.85;12.63;;;;;;;13.85;100.00;96107.69;1030991;28;20057;-66
2021/09/12 00:11:17;;;;;;;14.45;12.60;;;;;;;13.86;100.00;96110.03;1025829;28;20089;-64
2021/09/12 00:11:48;;;;;;;15.77;12.55;;;;;;;13.87;100.00;96111.59;1026592;28;20033;-66
2021/09/12 00:12:18;;;;;;;14.73;12.95;;;;;;;13.86;100.00;96110.03;1034874;28;20029;-65
2021/09/12 00:12:49;;;;;;;15.50;12.75;;;;;;;13.86;100.00;96106.63;1034856;28;20468;-66
2021/09/12 00:13:19;;;;;;;17.75;13.02;;;;;;;13.84;100.00;96104.25;1030980;28;20679;-66
2021/09/12 00:13:50;;;;;;;15.80;13.20;;;;;;;13.85;100.00;96107.69;1025936;28;20490;-66
2021/09/12 00:14:20;;;;;;;14.52;12.05;;;;;;;13.87;100.00;96110.81;1025377;28;20027;-66
2021/09/12 00:14:50;;;;;;;17.35;13.52;;;;;;;13.87;100.00;96113.47;1031061;28;20507;-66
2021/09/12 00:15:21;;;;;;;18.48;13.30;;;;;;;13.82;100.00;96102.97;1030901;28;20388;-66
2021/09/12 00:15:51;;;;;;;17.70;13.57;;;;;;;13.86;100.00;96107.41;1027819;28;20034;-66
2021/09/12 00:16:22;;;;;;;16.55;13.32;;;;;;;13.84;100.00;96112.16;1034842;28;20034;-66
2021/09/12 00:16:52;;;;;;;16.02;12.32;;;;;;;13.84;100.00;96109.50;1038778;28;20017;-65
2021/09/12 00:17:23;;;;;;;16.52;12.70;;;;;;;13.85;100.00;96103.19;1035048;28;20021;-66
2021/09/12 00:17:53;;;;;;;18.73;12.82;;;;;;;13.84;100.00;96111.38;1036635;28;20024;-66
2021/09/12 00:18:24;;;;;;;14.50;12.55;;;;;;;13.78;100.00;96102.72;1030807;28;20088;-66
2021/09/12 00:18:54;;;;;;;15.88;12.27;;;;;;;13.82;100.00;96106.38;1026810;28;20027;-67
2021/09/12 00:19:24;;;;;;;17.02;12.55;;;;;;;13.82;100.00;96106.38;1026648;28;20030;-66
2021/09/12 00:19:55;;;;;;;19.35;13.43;;;;;;;13.80;100.00;96103.22;1027001;28;20384;-66
2021/09/12 00:20:25;;;;;;;21.25;12.85;;;;;;;13.80;100.00;96111.13;1036376;28;20032;-66
2021/09/12 00:20:56;;;;;;;15.68;12.23;;;;;;;13.80;100.00;96108.50;1039139;28;20025;-66
2021/09/12 00:21:26;;;;;;;15.10;12.75;;;;;;;13.81;100.00;96112.69;1038493;28;20045;-67
2021/09/12 00:21:57;;;;;;;17.27;12.52;;;;;;;13.83;100.00;96109.81;1038807;28;20100;-66
2021/09/12 00:22:27;;;;;;;17.50;13.90;;;;;;;13.85;100.00;96110.31;1035014;28;20510;-66
2021/09/12 00:22:58;;;;;;;15.90;13.40;;;;;;;13.84;100.00;96106.88;1030939;28;20031;-66
2021/09/12 00:23:28;;;;;;;15.75;13.05;;;;;;;13.86;100.00;96099.50;1026843;28;20058;-66
2021/09/12 00:23:59;;;;;;;15.55;12.68;;;;;;;13.87;100.00;96100.28;1019815;29;20100;-67
2021/09/12 00:24:29;;;;;;;15.70;13.40;;;;;;;13.85;100.00;96097.94;1015156;29;20075;-66
2021/09/12 00:25:00;;;;;;;16.35;13.52;;;;;;;13.83;100.00;96093.97;1025478;28;20026;-66
2021/09/12 00:25:30;;;;;;;18.05;13.65;;;;;;;13.86;100.00;96096.84;1033426;28;20026;-66
2021/09/12 00:26:01;;;;;;;16.17;12.30;;;;;;;13.82;100.00;96090.56;1027099;28;20081;-66
2021/09/12 00:26:31;;;;;;;17.23;13.45;;;;;;;13.88;100.00;96099.19;1026799;28;20043;-66
2021/09/12 00:27:02;;;;;;;15.55;13.10;;;;;;;13.89;100.00;96098.94;1022857;28;20086;-66
2021/09/12 00:27:33;;;;;;;14.50;12.38;;;;;;;13.83;100.00;96086.84;1030299;28;20034;-66
2021/09/12 00:28:03;;;;;;;16.33;12.13;;;;;;;13.91;100.00;96091.53;1039504;28;20410;-66
2021/09/12 00:28:34;;;;;;;15.27;12.98;;;;;;;13.93;100.00;96099.19;1038719;28;20034;-66
2021/09/12 00:29:04;;;;;;;15.40;12.98;;;;;;;13.94;100.00;96097.31;1037190;28;20038;-66
2021/09/12 00:29:34;;;;;;;14.90;11.98;;;;;;;13.95;100.00;96101.53;1038968;28;20032;-66
2021/09/12 00:30:06;;;;;;;14.57;12.75;;;;;;;13.91;100.00;96090.75;1039142;28;20036;-65
2021/09/12 00:30:36;;;;;;;15.60;12.65;;;;;;;13.93;100.00;96098.41;1029432;28;20029;-66
2021/09/12 00:31:06;;;;;;;16.33;12.48;;;;;;;13.93;100.00;96098.41;1026722;28;20037;-66
2021/09/12 00:31:37;;;;;;;17.13;13.43;;;;;;;13.91;100.00;96096.00;1029954;28;20498;-65
2021/09/12 00:32:10;;;;;;;16.52;13.25;;;;;;;13.89;100.00;96096.31;1027314;28;20528;-66
2021/09/12 00:32:41;;;;;;;15.55;12.55;;;;;;;13.87;100.00;96090.50;1026992;28;20035;-65
2021/09/12 00:33:11;;;;;;;14.82;12.73;;;;;;;13.91;100.00;96093.38;1028229;28;20019;-66
2021/09/12 00:33:44;;;;;;;14.80;12.30;;;;;;;13.91;100.00;96094.16;1033127;28;20026;-65
2021/09/12 00:34:15;;;;;;;13.77;12.23;;;;;;;13.95;100.00;96101.53;1031457;28;20039;-65
2021/09/12 00:34:45;;;;;;;14.35;11.95;;;;;;;13.91;100.00;96086.25;1031071;28;20053;-66
2021/09/12 00:35:16;;;;;;;16.30;12.15;;;;;;;13.90;100.00;96084.69;1030685;28;20023;-66
2021/09/12 00:35:46;;;;;;;13.93;12.07;;;;;;;13.95;100.00;96085.69;1022990;28;20030;-66
2021/09/12 00:36:17;;;;;;;17.25;12.00;;;;;;;13.98;100.00;96095.72;1026840;28;20370;-66
2021/09/12 00:36:47;;;;;;;16.60;12.07;;;;;;;13.97;100.00;96092.28;1026708;28;20420;-66
2021/09/12 00:37:18;;;;;;;14.88;12.60;;;;;;;13.98;100.00;96093.06;1026766;28;20082;-66
2021/09/12 00:37:50;;;;;;;14.07;12.05;;;;;;;13.98;100.00;96091.22;1019008;29;20023;-66
2021/09/12 00:38:21;;;;;;;16.98;13.45;;;;;;;13.98;100.00;96095.72;1022171;28;20035;-66
2021/09/12 00:38:51;;;;;;;14.85;12.48;;;;;;;13.94;100.00;96086.78;1027130;28;20031;-66
2021/09/12 00:39:21;;;;;;;17.02;12.90;;;;;;;13.91;100.00;96086.25;1026950;28;20031;-65
2021/09/12 00:39:52;;;;;;;15.25;11.77;;;;;;;13.96;100.00;96092.56;1029173;28;20027;-65
2021/09/12 00:40:23;;;;;;;13.75;12.27;;;;;;;13.96;100.00;96092.56;1028806;28;20027;-65
2021/09/12 00:40:59;;;;;;;13.23;10.85;;;;;;;13.91;100.00;96080.97;1022854;29;20023;-67
2021/09/12 00:41:39;;;;;;;24.35;11.93;;;;;;;13.93;100.00;96085.22;1021772;29;20039;-66
2021/09/12 00:42:10;;;;;;;;;;;;;;;13.99;100.00;96086.75;1023304;29;20445;-66
2021/09/12 00:42:40;;;;;;;23.27;11.82;;;;;;;13.93;100.00;96083.34;1029103;28;19910;-65
2021/09/12 00:43:11;;;;;;;15.32;12.27;;;;;;;13.96;100.00;96084.66;1028125;28;20125;-67
2021/09/12 00:43:41;;;;;;;18.05;12.18;;;;;;;13.99;100.00;96092.03;1026596;28;20830;-66
2021/09/12 00:44:12;;;;;;;17.10;11.88;;;;;;;13.97;100.00;96094.13;1034881;28;20080;-66
2021/09/12 00:44:43;;;;;;;13.35;11.45;;;;;;;14.00;100.00;96093.59;1027097;28;20728;-65
2021/09/12 00:45:13;;;;;;;15.35;11.10;;;;;;;14.00;100.00;96089.09;1028598;28;20085;-66
2021/09/12 00:45:44;;;;;;;17.38;12.13;;;;;;;13.95;100.00;96080.44;1030812;28;20404;-66
2021/09/12 00:46:14;;;;;;;15.38;11.57;;;;;;;14.00;100.00;96083.03;1027334;28;20033;-65
2021/09/12 00:46:45;;;;;;;15.35;12.13;;;;;;;14.00;100.00;96089.09;1035153;28;20030;-65
2021/09/12 00:47:16;;;;;;;14.85;12.30;;;;;;;14.00;100.00;96090.97;1034862;28;20022;-66
2021/09/12 00:47:46;;;;;;;15.63;11.20;;;;;;;14.01;100.00;96089.88;1030888;28;20022;-66
2021/09/12 00:48:17;;;;;;;14.82;12.32;;;;;;;14.00;100.00;96083.03;1034044;28;20037;-66
2021/09/12 00:48:47;;;;;;;11.98;10.75;;;;;;;14.02;100.00;96079.06;1030627;28;20496;-66
2021/09/12 00:49:18;;;;;;;18.73;11.65;;;;;;;14.02;100.00;96081.72;1034775;28;20613;-66
2021/09/12 00:49:48;;;;;;;13.48;10.82;;;;;;;13.95;100.00;96069.88;1034768;28;20403;-66
2021/09/12 00:50:19;;;;;;;14.68;11.38;;;;;;;14.02;100.00;96080.94;1034666;28;20030;-66
2021/09/12 00:50:49;;;;;;;13.05;11.02;;;;;;;14.01;100.00;96085.38;1031082;28;20029;-66
2021/09/12 00:51:20;;;;;;;12.68;11.23;;;;;;;13.98;100.00;96075.38;1029941;28;20504;-65
2021/09/12 00:51:50;;;;;;;13.55;12.13;;;;;;;14.02;100.00;96076.44;1030433;28;20701;-66
2021/09/12 00:52:21;;;;;;;14.65;11.32;;;;;;;14.03;100.00;96077.22;1026425;28;20049;-65
2021/09/12 00:52:52;;;;;;;16.17;12.30;;;;;;;14.01;100.00;96074.06;1026862;28;20026;-65
2021/09/12 00:53:25;;;;;;;16.38;12.68;;;;;;;14.06;100.00;96077.44;1019761;28;20031;-63
2021/09/12 00:53:56;;;;;;;16.60;11.40;;;;;;;14.05;100.00;96069.78;1022249;28;20523;-66
2021/09/12 00:54:26;;;;;;;14.75;11.10;;;;;;;14.01;100.00;96080.13;1022739;28;20027;-65
2021/09/12 00:54:57;;;;;;;12.73;11.02;;;;;;;14.08;100.00;96079.81;1023025;29;20035;-66
2021/09/12 00:55:27;;;;;;;13.02;10.85;;;;;;;14.07;100.00;96078.22;1022524;28;20038;-67
2021/09/12 00:56:00;;;;;;;13.27;11.40;;;;;;;14.09;100.00;96081.41;1022573;28;20031;-66
2021/09/12 00:56:32;;;;;;;14.55;11.32;;;;;;;14.10;100.00;96077.69;1038755;28;20698;-66
2021/09/12 00:57:06;;;;;;;16.75;12.05;;;;;;;14.10;100.00;96082.97;1034352;28;20036;-66
2021/09/12 00:57:37;;;;;;;15.48;11.90;;;;;;;14.05;100.00;96075.06;1026348;28;20162;-66
2021/09/12 00:58:08;;;;;;;16.33;11.98;;;;;;;14.10;100.00;96082.97;1026992;28;20023;-66
2021/09/12 00:58:38;;;;;;;14.50;11.10;;;;;;;14.09;100.00;96081.41;1026885;28;20035;-64
2021/09/12 00:59:10;;;;;;;14.27;12.40;;;;;;;14.13;100.00;96087.69;1029884;28;20656;-66
2021/09/12 00:59:41;;;;;;;15.45;12.13;;;;;;;14.12;100.00;96080.84;1022260;28;20150;-66
2021/09/12 01:00:12;;;;;;;14.15;11.45;;;;;;;14.12;100.00;96081.63;1030438;28;20022;-66
2021/09/12 01:00:43;;;;;;;15.00;11.35;;;;;;;14.08;100.00;96079.81;1028422;28;20031;-66
2021/09/12 01:01:14;;;;;;;13.75;11.65;;;;;;;14.13;100.00;96075.28;1022191;28;20031;-65
2021/09/12 01:01:44;;;;;;;14.57;12.52;;;;;;;14.10;100.00;96080.31;1022975;28;20027;-66
2021/09/12 01:02:17;;;;;;;15.05;11.63;;;;;;;14.13;100.00;96085.06;1021070;28;20072;-66
2021/09/12 01:02:48;;;;;;;14.63;11.38;;;;;;;14.14;100.00;96083.97;1030700;28;20484;-66
2021/09/12 01:03:18;;;;;;;13.43;11.48;;;;;;;14.12;100.00;96084.28;1030669;28;20030;-67
2021/09/12 01:03:49;;;;;;;13.77;11.15;;;;;;;14.12;100.00;96086.13;1033415;28;20026;-66
2021/09/12 01:04:19;;;;;;;15.02;12.57;;;;;;;14.11;100.00;96080.03;1023539;28;20038;-67
2021/09/12 01:04:50;;;;;;;13.48;12.07;;;;;;;14.12;100.00;96075.56;1030773;28;20038;-66
2021/09/12 01:05:20;;;;;;;12.70;11.27;;;;;;;14.13;100.00;96082.41;1030682;28;20063;-66
2021/09/12 01:05:51;;;;;;;15.15;10.88;;;;;;;14.14;100.00;96079.47;1035616;28;20792;-66
2021/09/12 01:06:21;;;;;;;14.32;11.70;;;;;;;14.11;100.00;96074.75;1034780;28;20328;-66
2021/09/12 01:06:51;;;;;;;14.63;11.52;;;;;;;14.16;100.00;96079.22;1034565;28;20034;-67
2021/09/12 01:07:22;;;;;;;15.95;11.43;;;;;;;14.15;100.00;96083.72;1030596;28;20470;-63
2021/09/12 01:07:52;;;;;;;13.77;11.07;;;;;;;14.16;100.00;96079.22;1026908;28;20099;-66
2021/09/12 01:08:23;;;;;;;13.45;11.18;;;;;;;14.17;100.00;96078.16;1022723;28;20039;-65
2021/09/12 01:08:53;;;;;;;12.68;11.35;;;;;;;14.18;100.00;96084.22;1026616;28;20022;-66
2021/09/12 01:09:24;;;;;;;14.18;11.30;;;;;;;14.18;100.00;96079.72;1030395;28;20615;-66
2021/09/12 01:09:54;;;;;;;13.90;11.40;;;;;;;14.19;100.00;96081.31;1030997;28;20451;-67
2021/09/12 01:10:25;;;;;;;14.60;11.27;;;;;;;14.20;100.00;96077.59;1030718;28;20034;-66
2021/09/12 01:10:55;;;;;;;12.27;10.70;;;;;;;14.20;100.00;96074.97;1029480;28;20112;-66
2021/09/12 01:11:26;;;;;;;15.45;10.95;;;;;;;14.22;100.00;96075.47;1022092;29;20361;-65
2021/09/12 01:11:57;;;;;;;15.15;11.98;;;;;;;14.23;100.00;96077.03;1018994;29;20032;-66
2021/09/12 01:12:28;;;;;;;15.88;10.90;;;;;;;14.15;100.00;96069.72;1023939;28;20413;-66
2021/09/12 01:12:58;;;;;;;14.98;10.85;;;;;;;14.24;100.00;96077.84;1031128;28;20069;-66
2021/09/12 01:13:29;;;;;;;13.73;10.70;;;;;;;14.19;100.00;96069.97;1038927;28;20025;-66
2021/09/12 01:13:59;;;;;;;13.20;11.25;;;;;;;14.15;100.00;96077.63;1034820;28;20030;-66
2021/09/12 01:14:30;;;;;;;12.30;10.48;;;;;;;14.20;100.00;96074.97;1034312;28;20053;-66
2021/09/12 01:15:00;;;;;;;13.85;10.95;;;;;;;14.21;100.00;96079.16;1030975;28;20022;-66
2021/09/12 01:15:31;;;;;;;11.98;10.13;;;;;;;14.19;100.00;96069.97;1038834;28;20056;-66
2021/09/12 01:16:14;;;;;;;13.40;10.90;;;;;;;14.21;100.00;96073.88;1034686;28;20057;-66
2021/09/12 01:16:45;;;;;;;13.10;11.15;;;;;;;14.22;100.00;96080.75;1034726;28;20635;-66
2021/09/12 01:17:15;;;;;;;13.07;10.95;;;;;;;14.22;100.00;96079.94;1030852;28;20583;-66
2021/09/12 01:17:46;;;;;;;12.55;10.57;;;;;;;14.21;100.00;96089.72;1034346;28;20426;-66
2021/09/12 01:18:16;;;;;;;13.13;10.98;;;;;;;14.23;100.00;96077.03;1034870;28;20387;-66
2021/09/12 01:18:47;;;;;;;14.68;10.98;;;;;;;14.22;100.00;96079.94;1034792;28;20048;-66
2021/09/12 01:19:17;;;;;;;15.80;10.93;;;;;;;14.20;100.00;96077.59;1036407;28;20025;-66
2021/09/12 01:19:48;;;;;;;13.48;11.23;;;;;;;14.23;100.00;96081.53;1030914;28;20065;-66
2021/09/12 01:20:18;;;;;;;15.70;11.80;;;;;;;14.16;100.00;96071.31;1034620;28;20033;-66
2021/09/12 01:20:49;;;;;;;15.05;10.95;;;;;;;14.21;100.00;96081.03;1027240;28;20029;-66
2021/09/12 01:21:24;;;;;;;13.80;11.18;;;;;;;14.17;100.00;96078.16;1034467;28;20034;-66
2021/09/12 01:21:55;;;;;;;15.13;11.10;;;;;;;14.17;100.00;96072.09;1031621;28;20069;-66
2021/09/12 01:22:26;;;;;;;13.90;10.88;;;;;;;14.20;100.00;96077.59;1026668;28;20050;-66
2021/09/12 01:22:56;;;;;;;15.85;11.05;;;;;;;14.16;100.00;96066.03;1026583;28;20374;-66
2021/09/12 01:23:30;;;;;;;15.90;11.52;;;;;;;14.22;100.00;96079.94;1034687;28;20034;-65
2021/09/12 01:24:00;;;;;;;15.10;11.07;;;;;;;14.22;100.00;96075.47;1034797;28;20100;-66
2021/09/12 01:24:31;;;;;;;16.27;11.95;;;;;;;14.22;100.00;96080.75;1030783;28;20030;-66
2021/09/12 01:25:01;;;;;;;16.70;11.48;;;;;;;14.22;100.00;96080.75;1026814;28;20034;-66
2021/09/12 01:25:32;;;;;;;15.85;11.90;;;;;;;14.22;100.00;96072.03;1030708;28;20034;-66
2021/09/12 01:26:02;;;;;;;14.90;12.02;;;;;;;14.20;100.00;96071.53;1030746;28;20033;-65
2021/09/12 01:26:33;;;;;;;13.63;11.13;;;;;;;14.22;100.00;96080.75;1034840;28;20030;-66
2021/09/12 01:27:03;;;;;;;13.75;11.35;;;;;;;14.25;100.00;96080.22;1034081;28;20065;-66
2021/09/12 01:27:34;;;;;;;12.55;11.23;;;;;;;14.21;100.00;96070.47;1038872;28;20590;-66
2021/09/12 01:28:06;;;;;;;14.75;11.63;;;;;;;14.23;100.00;96077.03;1038929;28;20443;-66
2021/09/12 01:28:40;;;;;;;14.38;11.82;;;;;;;14.19;100.00;96065.47;1030448;28;20104;-66
2021/09/12 01:29:13;;;;;;;13.73;11.50;;;;;;;14.17;100.00;96070.22;1022483;29;20042;-66
2021/09/12 01:29:44;;;;;;;14.73;11.82;;;;;;;14.24;100.00;96075.97;1026652;28;20038;-66
2021/09/12 01:30:14;;;;;;;16.80;11.73;;;;;;;14.24;100.00;96072.56;1030501;28;20026;-66
2021/09/12 01:30:45;;;;;;;17.58;12.50;;;;;;;14.23;100.00;96078.91;1030642;28;20085;-66
2021/09/12 01:31:29;;;;;;;16.02;11.52;;;;;;;14.19;100.00;96072.63;1027392;28;20026;-66
2021/09/12 01:31:59;;;;;;;15.38;11.93;;;;;;;14.23;100.00;96077.03;1029818;28;20038;-66
2021/09/12 01:32:29;;;;;;;14.63;11.23;;;;;;;14.22;100.00;96069.38;1032560;28;20089;-65
2021/09/12 01:33:00;;;;;;;14.77;11.65;;;;;;;14.23;100.00;96078.91;1022549;29;20050;-66
2021/09/12 01:33:30;;;;;;;14.75;11.80;;;;;;;14.22;100.00;96075.47;1018601;29;20483;-67
2021/09/12 01:34:01;;;;;;;14.32;11.77;;;;;;;14.18;100.00;96068.38;1018946;29;20028;-66
2021/09/12 01:34:31;;;;;;;18.00;12.50;;;;;;;14.21;100.00;96076.53;1022639;28;20023;-66
2021/09/12 01:35:02;;;;;;;14.93;12.45;;;;;;;14.17;100.00;96067.59;1022681;29;20116;-65
2021/09/12 01:35:33;;;;;;;15.07;12.43;;;;;;;14.21;100.00;96073.88;1018749;29;20034;-66
2021/09/12 01:36:04;;;;;;;14.60;12.05;;;;;;;14.19;100.00;96078.66;1018879;29;20051;-66
2021/09/12 01:36:34;;;;;;;17.17;13.00;;;;;;;14.20;100.00;96077.59;1029575;28;20089;-66
2021/09/12 01:37:05;;;;;;;14.48;12.48;;;;;;;14.19;100.00;96081.31;1027037;28;20053;-66
2021/09/12 01:37:35;;;;;;;13.65;12.18;;;;;;;14.12;100.00;96068.44;1030736;28;20385;-67
2021/09/12 01:38:05;;;;;;;15.38;12.68;;;;;;;14.20;100.00;96077.59;1029906;28;20049;-66
2021/09/12 01:38:36;;;;;;;15.30;11.93;;;;;;;14.13;100.00;96066.56;1030777;28;20493;-66
2021/09/12 01:39:06;;;;;;;18.67;13.05;;;;;;;14.19;100.00;96076.03;1030704;28;20419;-66
2021/09/12 01:39:37;;;;;;;16.13;11.98;;;;;;;14.21;100.00;96076.53;1030448;28;20439;-65
2021/09/12 01:40:08;;;;;;;16.20;12.48;;;;;;;14.18;100.00;96071.78;1034405;28;20022;-65
2021/09/12 01:40:38;;;;;;;15.43;12.27;;;;;;;14.21;100.00;96071.25;1030741;28;20058;-66
2021/09/12 01:41:09;;;;;;;16.77;12.15;;;;;;;14.24;100.00;96078.63;1026549;28;20527;-66
2021/09/12 01:41:39;;;;;;;17.63;12.15;;;;;;;14.22;100.00;96075.47;1025658;28;20027;-66
2021/09/12 01:42:10;;;;;;;15.55;11.93;;;;;;;14.21;100.00;96067.81;1026645;28;20042;-66
2021/09/12 01:42:40;;;;;;;14.20;12.23;;;;;;;14.17;100.00;96061.53;1027087;28;20074;-66
2021/09/12 01:43:11;;;;;;;16.92;12.57;;;;;;;14.13;100.00;96059.44;1030090;28;20034;-65
2021/09/12 01:43:54;;;;;;;15.88;12.32;;;;;;;14.20;100.00;96067.03;1026633;28;20030;-66
2021/09/12 01:44:25;;;;;;;16.60;12.50;;;;;;;14.19;100.00;96070.75;1021865;28;20024;-64
2021/09/12 01:44:55;;;;;;;14.98;12.00;;;;;;;14.19;100.00;96070.75;1021910;28;20035;-64
2021/09/12 01:45:26;;;;;;;15.43;12.70;;;;;;;14.19;100.00;96069.97;1027967;28;20034;-66
2021/09/12 01:45:56;;;;;;;16.70;12.90;;;;;;;14.17;100.00;96067.59;1025544;28;20031;-66
2021/09/12 01:46:27;;;;;;;15.13;12.65;;;;;;;14.16;100.00;96071.31;1030833;28;20100;-67
2021/09/12 01:46:57;;;;;;;14.63;11.80;;;;;;;14.16;100.00;96071.31;1030431;28;20038;-64
2021/09/12 01:47:28;;;;;;;14.23;11.70;;;;;;;14.14;100.00;96068.16;1030663;28;20435;-65
2021/09/12 01:48:01;;;;;;;17.63;12.50;;;;;;;14.07;100.00;96054.47;1034351;28;20030;-66
2021/09/12 01:48:31;;;;;;;14.23;12.05;;;;;;;14.15;100.00;96067.06;1030454;28;20026;-66
2021/09/12 01:49:05;;;;;;;14.48;12.48;;;;;;;14.17;100.00;96067.59;1026374;28;20034;-63
2021/09/12 01:49:35;;;;;;;15.45;12.32;;;;;;;14.14;100.00;96070.78;1027465;28;20029;-66
2021/09/12 01:50:06;;;;;;;17.08;12.48;;;;;;;14.12;100.00;96060.53;1020284;28;20083;-65
2021/09/12 01:50:37;;;;;;;15.50;12.52;;;;;;;14.13;100.00;96066.56;1019537;28;20028;-66
2021/09/12 01:51:07;;;;;;;14.90;11.98;;;;;;;14.12;100.00;96065.00;1026401;28;20030;-66
2021/09/12 01:51:38;;;;;;;16.15;12.15;;;;;;;14.09;100.00;96060.28;1018592;28;20083;-66
2021/09/12 01:52:12;;;;;;;16.90;12.57;;;;;;;14.11;100.00;96068.69;1026262;28;20436;-66
2021/09/12 01:52:42;;;;;;;16.10;12.77;;;;;;;14.09;100.00;96065.56;1026413;28;20113;-64
2021/09/12 01:53:13;;;;;;;15.20;11.93;;;;;;;14.07;100.00;96062.41;1026857;28;20451;-66
2021/09/12 01:53:44;;;;;;;14.88;12.05;;;;;;;14.05;100.00;96056.59;1027118;28;20011;-65
2021/09/12 01:54:15;;;;;;;14.30;12.07;;;;;;;14.04;100.00;96062.94;1026569;28;20049;-66
2021/09/12 01:54:45;;;;;;;15.90;11.73;;;;;;;14.09;100.00;96066.34;1026472;28;20041;-66
2021/09/12 01:55:16;;;;;;;16.65;12.00;;;;;;;14.10;100.00;96067.13;1026558;28;20035;-66
2021/09/12 01:55:46;;;;;;;15.40;12.32;;;;;;;14.09;100.00;96055.78;1034681;28;20022;-66
2021/09/12 01:56:17;;;;;;;15.75;12.15;;;;;;;14.09;100.00;96063.72;1038608;28;20017;-66
2021/09/12 01:56:47;;;;;;;14.25;12.15;;;;;;;14.05;100.00;96060.06;1026221;28;20015;-66
2021/09/12 01:57:18;;;;;;;14.95;11.88;;;;;;;14.08;100.00;96064.78;1025142;28;20019;-66
2021/09/12 01:57:48;;;;;;;16.55;12.20;;;;;;;14.10;100.00;96061.84;1026399;28;20034;-66
2021/09/12 01:58:18;;;;;;;15.35;11.98;;;;;;;14.09;100.00;96055.78;1025851;28;20105;-64
2021/09/12 01:58:49;;;;;;;15.80;11.52;;;;;;;14.05;100.00;96051.31;1034573;28;20022;-67
2021/09/12 01:59:19;;;;;;;14.48;11.60;;;;;;;14.11;100.00;96064.19;1030566;28;20019;-67
2021/09/12 01:59:50;;;;;;;12.32;11.00;;;;;;;13.97;100.00;96041.38;1030365;28;20026;-65
2021/09/12 02:00:20;;;;;;;13.73;11.15;;;;;;;14.11;100.00;96064.19;1032517;28;20064;-66
2021/09/12 02:00:51;;;;;;;12.88;11.52;;;;;;;14.12;100.00;96062.38;1030547;28;20026;-65
2021/09/12 02:01:21;;;;;;;13.35;11.32;;;;;;;14.13;100.00;96059.44;1033784;28;20029;-66
2021/09/12 02:01:51;;;;;;;12.68;10.75;;;;;;;14.12;100.00;96060.53;1034182;28;20431;-66
2021/09/12 02:02:22;;;;;;;13.55;11.18;;;;;;;14.12;100.00;96054.47;1034159;28;20025;-64
2021/09/12 02:02:52;;;;;;;13.30;11.15;;;;;;;14.14;100.00;96068.16;1034422;28;20511;-66
2021/09/12 02:03:23;;;;;;;12.88;11.13;;;;;;;14.12;100.00;96068.44;1029969;28;20026;-62
2021/09/12 02:03:53;;;;;;;13.25;10.50;;;;;;;14.08;100.00;96054.22;1030412;28;20027;-65
2021/09/12 02:04:24;;;;;;;12.82;11.18;;;;;;;14.12;100.00;96060.53;1026190;28;20491;-66
2021/09/12 02:04:54;;;;;;;11.57;10.38;;;;;;;14.14;100.00;96065.50;1030563;28;20069;-66
2021/09/12 02:05:25;;;;;;;12.15;10.18;;;;;;;14.13;100.00;96058.66;1033803;28;20026;-65
2021/09/12 02:05:56;;;;;;;12.82;10.85;;;;;;;14.09;100.00;96057.66;1030746;28;20026;-65
2021/09/12 02:06:26;;;;;;;15.13;11.38;;;;;;;14.14;100.00;96062.88;1036569;28;20470;-65
2021/09/12 02:06:56;;;;;;;16.90;11.20;;;;;;;14.14;100.00;96062.88;1038017;28;20058;-66
2021/09/12 02:07:27;;;;;;;12.85;10.93;;;;;;;14.15;100.00;96059.16;1037194;28;20037;-66
2021/09/12 02:07:57;;;;;;;17.23;10.90;;;;;;;14.14;100.00;96063.66;1042669;28;20080;-67
2021/09/12 02:08:28;;;;;;;14.32;10.77;;;;;;;14.08;100.00;96058.69;1034117;28;20504;-69
2021/09/12 02:08:58;;;;;;;14.13;11.02;;;;;;;14.13;100.00;96066.56;1030059;28;20125;-66
2021/09/12 02:09:29;;;;;;;12.80;11.40;;;;;;;14.14;100.00;96065.50;1030054;28;20105;-66
2021/09/12 02:09:59;;;;;;;13.52;11.18;;;;;;;14.13;100.00;96071.84;1030443;28;20034;-63
2021/09/12 02:10:30;;;;;;;13.48;11.10;;;;;;;14.13;100.00;96062.09;1030131;28;20703;-66
2021/09/12 02:11:00;;;;;;;11.75;10.05;;;;;;;14.14;100.00;96062.88;1031550;28;20026;-66
2021/09/12 02:11:30;;;;;;;14.65;11.07;;;;;;;14.14;100.00;96057.59;1029472;28;20038;-66
2021/09/12 02:12:01;;;;;;;11.85;10.07;;;;;;;14.16;100.00;96063.38;1022170;28;20070;-66
2021/09/12 02:12:31;;;;;;;14.05;10.90;;;;;;;14.14;100.00;96057.59;1021945;28;20038;-66
2021/09/12 02:13:02;;;;;;;14.65;10.95;;;;;;;14.15;100.00;96059.16;1021749;28;20027;-63
2021/09/12 02:13:32;;;;;;;12.65;10.07;;;;;;;14.17;100.00;96058.91;1022254;28;20023;-66
2021/09/12 02:14:03;;;;;;;12.35;10.32;;;;;;;14.15;100.00;96053.88;1033799;28;20022;-65
2021/09/12 02:14:33;;;;;;;13.48;10.60;;;;;;;14.17;100.00;96059.69;1030357;28;20038;-64
2021/09/12 02:15:04;;;;;;;14.93;10.23;;;;;;;14.18;100.00;96061.25;1033619;28;20033;-66
2021/09/12 02:15:34;;;;;;;13.20;10.18;;;;;;;14.19;100.00;96060.19;1029615;28;20041;-66
2021/09/12 02:16:05;;;;;;;14.98;10.27;;;;;;;14.19;100.00;96057.56;1034224;28;20018;-65
2021/09/12 02:16:35;;;;;;;13.38;10.75;;;;;;;14.13;100.00;96045.47;1034097;28;20030;-66
2021/09/12 02:17:08;;;;;;;12.85;10.30;;;;;;;14.18;100.00;96066.53;1026038;28;20078;-65
2021/09/12 02:17:39;;;;;;;15.13;10.45;;;;;;;14.19;100.00;96054.91;1026527;28;20027;-66
2021/09/12 02:18:10;;;;;;;12.82;10.32;;;;;;;14.17;100.00;96049.13;1026840;28;20628;-66
2021/09/12 02:18:40;;;;;;;12.82;10.77;;;;;;;14.21;100.00;96058.06;1023411;28;20023;-66
2021/09/12 02:19:11;;;;;;;14.63;10.15;;;;;;;14.21;100.00;96060.69;1030406;28;20377;-66
2021/09/12 02:19:41;;;;;;;12.63;10.85;;;;;;;14.15;100.00;96053.88;1030602;28;20031;-65
2021/09/12 02:20:12;;;;;;;12.07;10.32;;;;;;;14.16;100.00;96060.75;1030539;28;20043;-67